Time;durP1;ratioP1;P1;durP2;ratioP2;P2;SDS_P1;SDS_P2;PMS_P1;PMS_P2;Temp;Humidity;BMP_temperature;BMP_pressure;BME280_temperature;BME280_humidity;BME280_pressure;Samples;Min_cycle;Max_cycle;Signal;HPM_P1;HPM_P2
2022/06/10 00:01:58;;;;;;;8.07;6.70;;;;;;;13.49;82.59;101568.28;5018162;28;20128;-81
2022/06/10 00:04:23;;;;;;;7.68;4.10;;;;;;;13.47;82.28;101562.16;5018029;28;20040;-82
2022/06/10 00:06:48;;;;;;;3.65;3.10;;;;;;;13.46;82.84;101566.56;5017856;28;20021;-81
2022/06/10 00:09:14;;;;;;;3.03;2.80;;;;;;;13.46;82.58;101578.84;5034248;28;20482;-81
2022/06/10 00:11:39;;;;;;;6.78;2.85;;;;;;;13.44;82.73;101572.72;5017835;28;20025;-82
2022/06/10 00:14:04;;;;;;;5.22;2.83;;;;;;;13.42;82.15;101571.88;5034457;28;20390;-81
2022/06/10 00:16:31;;;;;;;6.38;2.85;;;;;;;13.41;82.02;101581.50;5017764;28;20032;-81
2022/06/10 00:18:56;;;;;;;3.22;2.70;;;;;;;13.39;82.42;101572.78;5017867;28;20036;-82
2022/06/10 00:21:22;;;;;;;3.53;2.85;;;;;;;13.38;82.38;101578.94;5017640;28;20021;-83
2022/06/10 00:23:47;;;;;;;3.17;2.88;;;;;;;13.34;82.77;101574.56;5017722;28;20021;-81
2022/06/10 00:26:13;;;;;;;4.38;3.10;;;;;;;13.33;81.79;101564.97;5017687;28;20025;-82
2022/06/10 00:28:40;;;;;;;2.88;2.60;;;;;;;13.32;82.33;101574.59;5017672;28;20106;-82
2022/06/10 00:31:06;;;;;;;3.80;2.75;;;;;;;13.31;82.24;101575.47;5017734;28;20036;-81
2022/06/10 00:33:34;;;;;;;5.53;3.03;;;;;;;13.29;82.52;101584.25;5017534;28;20029;-81
2022/06/10 00:36:00;;;;;;;3.45;3.13;;;;;;;13.29;82.58;101589.50;5018142;28;20032;-81
2022/06/10 00:38:25;;;;;;;6.03;2.95;;;;;;;13.26;82.94;101579.91;5034069;28;20024;-82
2022/06/10 00:40:55;;;;;;;3.13;2.67;;;;;;;13.24;82.80;101576.47;5017569;28;20087;-81
2022/06/10 00:43:24;;;;;;;3.58;2.63;;;;;;;13.24;82.69;101581.72;5017620;28;20017;-81
2022/06/10 00:46:17;;;;;;;4.63;2.70;;;;;;;13.24;82.72;101586.06;5017380;28;20028;-82
2022/06/10 00:48:49;;;;;;;3.63;2.35;;;;;;;13.22;82.69;101583.47;5019237;28;20036;-82
2022/06/10 00:51:29;;;;;;;3.88;2.90;;;;;;;13.22;82.54;101582.63;5021311;28;20033;-81
2022/06/10 00:53:59;;;;;;;5.10;2.60;;;;;;;13.20;82.84;101585.25;5021106;28;20029;-81
2022/06/10 00:56:27;;;;;;;4.65;2.78;;;;;;;13.19;83.04;101584.38;5037231;28;20047;-81
2022/06/10 00:58:56;;;;;;;5.15;2.38;;;;;;;13.17;83.64;101587.91;5037092;28;20032;-81
2022/06/10 01:01:22;;;;;;;4.00;2.83;;;;;;;13.16;82.94;101583.56;5020619;28;20021;-82
2022/06/10 01:03:48;;;;;;;2.88;2.30;;;;;;;13.12;82.62;101589.75;5020580;28;20021;-81
2022/06/10 01:06:14;;;;;;;4.28;2.17;;;;;;;13.08;82.75;101591.53;5020580;28;20386;-82
2022/06/10 01:08:41;;;;;;;2.13;1.92;;;;;;;13.07;82.52;101597.66;5020687;28;20032;-81
2022/06/10 01:11:13;;;;;;;5.22;2.60;;;;;;;13.04;82.38;101591.59;5020337;28;20060;-82
2022/06/10 01:13:56;;;;;;;3.05;2.42;;;;;;;13.01;81.99;101592.50;5036818;28;20025;-81
2022/06/10 01:16:35;;;;;;;2.88;2.30;;;;;;;12.98;82.68;101596.00;5055433;28;20029;-82
2022/06/10 01:19:17;;;;;;;3.63;2.53;;;;;;;12.95;82.72;101596.06;5020462;28;20027;-81
2022/06/10 01:22:09;;;;;;;3.03;2.55;;;;;;;12.93;83.34;101597.81;5036748;28;20069;-81
2022/06/10 01:24:34;;;;;;;4.65;2.53;;;;;;;12.90;82.66;101603.09;5051552;28;20116;-81
2022/06/10 01:27:49;;;;;;;2.35;2.15;;;;;;;12.87;83.26;101597.91;5036704;28;20110;-82
2022/06/10 01:30:20;;;;;;;2.63;2.42;;;;;;;12.84;82.41;101603.16;5036658;28;20017;-81
2022/06/10 01:33:10;;;;;;;3.88;2.65;;;;;;;12.80;83.12;101602.34;5020048;28;20086;-81
2022/06/10 01:35:44;;;;;;;2.97;2.60;;;;;;;12.77;82.96;101604.97;5036544;28;20059;-82
2022/06/10 01:38:22;;;;;;;3.78;2.50;;;;;;;12.74;83.28;101605.03;5020003;28;20025;-81
2022/06/10 01:40:47;;;;;;;3.17;2.97;;;;;;;12.73;83.63;101597.19;5020033;28;20021;-81
2022/06/10 01:43:25;;;;;;;2.97;2.70;;;;;;;12.68;83.10;101598.09;5036256;28;20036;-82
2022/06/10 01:46:11;;;;;;;2.88;2.33;;;;;;;12.65;82.72;101598.13;5054165;28;20029;-81
2022/06/10 01:48:58;;;;;;;3.65;2.50;;;;;;;12.64;82.62;101606.03;5019704;28;20021;-81
2022/06/10 01:51:31;;;;;;;2.53;2.33;;;;;;;12.61;82.29;101606.91;5036136;28;20119;-82
2022/06/10 01:54:36;;;;;;;5.70;2.75;;;;;;;12.57;82.06;101613.06;5019768;28;20563;-81
2022/06/10 01:57:07;;;;;;;3.83;2.45;;;;;;;12.57;82.50;101617.44;5032966;28;20041;-82
2022/06/10 01:59:39;;;;;;;3.35;2.67;;;;;;;12.54;82.20;101622.72;5018827;28;20398;-81
2022/06/10 02:02:15;;;;;;;3.88;2.42;;;;;;;12.51;81.80;101621.84;5019409;28;20032;-82
2022/06/10 02:04:46;;;;;;;2.58;2.38;;;;;;;12.49;81.63;101620.13;5019593;28;20486;-81
2022/06/10 02:07:20;;;;;;;5.72;2.42;;;;;;;12.46;81.44;101617.53;5019317;28;20025;-81
2022/06/10 02:09:49;;;;;;;2.92;2.72;;;;;;;12.44;81.84;101616.69;5035885;28;20067;-81
2022/06/10 02:12:23;;;;;;;4.97;2.83;;;;;;;12.42;82.29;101621.06;5018988;28;20394;-82
2022/06/10 02:15:03;;;;;;;3.88;2.60;;;;;;;12.41;82.36;101614.97;5019053;28;20112;-81
2022/06/10 02:17:34;;;;;;;5.32;2.58;;;;;;;12.41;81.59;101616.72;5035584;28;20479;-81
2022/06/10 02:20:00;;;;;;;2.72;2.47;;;;;;;12.40;81.60;101622.84;5019061;28;20024;-81
2022/06/10 02:22:32;;;;;;;2.92;2.67;;;;;;;12.39;81.67;101623.72;5019061;28;20406;-81
2022/06/10 02:25:13;;;;;;;5.28;2.47;;;;;;;12.39;82.17;101623.72;5019590;28;20093;-81
2022/06/10 02:27:44;;;;;;;3.33;2.75;;;;;;;12.36;82.11;101621.13;5018610;28;20032;-81
2022/06/10 02:30:43;;;;;;;3.85;2.65;;;;;;;12.35;82.00;101620.25;5018588;28;20509;-81
2022/06/10 02:33:09;;;;;;;5.20;2.38;;;;;;;12.36;82.32;101621.13;4968118;28;20036;-82
2022/06/10 02:35:52;;;;;;;2.88;2.67;;;;;;;12.34;82.60;101624.63;5018882;28;20043;-81
2022/06/10 02:38:28;;;;;;;2.47;2.28;;;;;;;12.33;82.88;101628.13;5018695;28;20078;-81
2022/06/10 02:41:00;;;;;;;2.40;2.20;;;;;;;12.31;81.84;101624.66;5018823;28;20020;-80
2022/06/10 02:43:45;;;;;;;3.22;2.53;;;;;;;12.28;81.42;101629.03;5018849;28;20063;-82
2022/06/10 02:46:12;;;;;;;;;;;;;;;12.26;80.90;101631.69;5053550;28;20036;-81
2022/06/10 02:48:44;;;;;;;2.75;1.83;;;;;;;12.24;81.09;101633.44;5035210;28;19915;-81
2022/06/10 02:51:09;;;;;;;2.70;2.50;;;;;;;12.22;82.30;101635.22;5034919;28;20075;-81
2022/06/10 02:53:35;;;;;;;4.03;2.63;;;;;;;12.21;82.59;101635.22;5018378;28;20482;-81
2022/06/10 02:56:01;;;;;;;3.45;2.05;;;;;;;12.18;81.96;101630.88;5018478;28;20032;-81
2022/06/10 03:01:20;;;;;;;2.45;2.25;;;;;;;12.15;80.96;101644.00;5074845;22;20099;-84
2022/06/10 03:04:00;;;;;;;2.85;2.63;;;;;;;12.13;82.40;101645.75;5094155;28;20032;-83
2022/06/10 03:06:54;;;;;;;2.47;2.28;;;;;;;12.14;82.53;101652.72;5095307;28;20535;-84
2022/06/10 03:09:46;;;;;;;3.30;2.72;;;;;;;12.13;82.64;101645.75;5058654;28;20031;-83
2022/06/10 03:12:12;;;;;;;3.88;2.88;;;;;;;12.13;82.44;101651.00;5058610;28;20073;-83
2022/06/10 03:15:07;;;;;;;2.58;2.25;;;;;;;12.12;82.57;101644.91;5075146;28;20020;-84
2022/06/10 03:17:33;;;;;;;;;;;;;;;12.11;81.75;101645.75;5062572;28;20114;-83
2022/06/10 03:20:20;;;;;;;2.05;1.95;;;;;;;12.09;82.59;101650.16;5075111;28;20395;-83
2022/06/10 03:22:58;;;;;;;3.35;2.60;;;;;;;12.11;82.71;101647.53;5074895;28;20031;-83
2022/06/10 03:25:39;;;;;;;4.60;2.42;;;;;;;12.10;83.21;101649.25;5075430;28;20031;-84
2022/06/10 03:28:04;;;;;;;3.08;2.65;;;;;;;12.12;82.41;101649.25;5058654;28;20028;-84
2022/06/10 03:30:34;;;;;;;2.70;2.22;;;;;;;12.08;81.61;101648.41;5075163;28;20092;-84
2022/06/10 03:33:09;;;;;;;3.72;2.53;;;;;;;12.08;81.42;101652.75;5058511;28;20016;-83
2022/06/10 03:35:47;;;;;;;3.22;2.45;;;;;;;12.07;81.66;101654.53;5058702;28;20028;-84
2022/06/10 03:38:13;;;;;;;2.80;2.60;;;;;;;12.07;82.37;101651.06;5058400;28;20024;-84
2022/06/10 03:40:42;;;;;;;2.80;2.58;;;;;;;12.07;82.26;101657.16;5058102;28;20026;-83
2022/06/10 03:43:09;;;;;;;3.17;2.97;;;;;;;12.06;81.80;101657.16;5058164;28;20345;-84
2022/06/10 03:45:44;;;;;;;3.20;2.90;;;;;;;12.06;82.12;101660.63;5057958;28;20026;-83
2022/06/10 03:48:14;;;;;;;2.95;2.67;;;;;;;12.06;82.31;101667.63;5058296;28;20024;-84
2022/06/10 03:50:40;;;;;;;4.78;3.03;;;;;;;12.06;82.54;101659.78;5058284;28;20030;-84
2022/06/10 03:53:07;;;;;;;4.85;3.13;;;;;;;12.08;82.66;101663.25;5057933;28;20403;-83
2022/06/10 03:55:32;;;;;;;3.10;2.80;;;;;;;12.07;82.76;101665.00;5057947;28;20115;-84
2022/06/10 03:57:58;;;;;;;3.53;2.90;;;;;;;12.07;83.46;101667.63;5059416;28;20449;-81
2022/06/10 04:00:25;;;;;;;3.42;3.13;;;;;;;12.09;83.38;101668.50;5059119;28;20122;-84
2022/06/10 04:02:51;;;;;;;2.83;2.63;;;;;;;12.12;83.13;101664.97;5058285;28;20020;-82
2022/06/10 04:05:18;;;;;;;3.83;2.60;;;;;;;12.13;83.52;101678.06;5059152;28;20012;-82
2022/06/10 04:07:43;;;;;;;3.25;2.53;;;;;;;12.15;83.97;101676.28;5058995;28;20020;-82
2022/06/10 04:10:13;;;;;;;3.65;2.95;;;;;;;12.17;83.58;101674.53;5058844;28;20392;-81
2022/06/10 04:12:38;;;;;;;5.50;3.15;;;;;;;12.21;84.19;101683.22;5058221;28;20031;-82
2022/06/10 04:15:05;;;;;;;6.72;3.03;;;;;;;12.24;84.35;101675.34;5058569;28;20028;-82
2022/06/10 04:17:31;;;;;;;6.03;3.38;;;;;;;12.28;84.59;101676.19;5058277;28;20481;-82
2022/06/10 04:19:58;;;;;;;9.57;3.42;;;;;;;12.31;83.88;101677.06;5058368;28;20024;-81
2022/06/10 04:22:24;;;;;;;5.95;3.80;;;;;;;12.34;84.47;101677.03;5058698;28;20023;-82
2022/06/10 04:24:49;;;;;;;5.38;3.20;;;;;;;12.35;85.32;101680.50;5061757;28;20453;-83
2022/06/10 04:27:15;;;;;;;4.28;3.33;;;;;;;12.37;84.95;101684.00;5062097;28;20038;-81
2022/06/10 04:29:40;;;;;;;8.93;3.88;;;;;;;12.41;85.22;101687.47;5078285;28;20046;-82
2022/06/10 04:32:06;;;;;;;10.18;4.50;;;;;;;12.46;84.64;101683.91;5062413;28;20119;-82
2022/06/10 04:34:31;;;;;;;5.53;3.13;;;;;;;12.48;85.08;101681.28;5062660;28;20523;-81
2022/06/10 04:36:57;;;;;;;5.43;3.38;;;;;;;12.51;84.83;101683.88;5062489;28;20066;-81
2022/06/10 04:39:22;;;;;;;4.57;3.17;;;;;;;12.53;84.86;101687.38;5062161;28;20385;-82
2022/06/10 04:41:48;;;;;;;5.70;3.95;;;;;;;12.55;84.92;101685.59;5062460;28;20020;-81
2022/06/10 04:44:13;;;;;;;4.20;3.58;;;;;;;12.57;85.05;101686.47;5078528;28;20012;-82
2022/06/10 04:46:41;;;;;;;4.22;3.70;;;;;;;12.60;84.90;101694.28;5062508;28;20061;-81
2022/06/10 04:49:07;;;;;;;4.57;2.80;;;;;;;12.62;84.77;101689.88;5062078;28;20056;-81
2022/06/10 04:51:33;;;;;;;4.25;3.22;;;;;;;12.63;83.74;101691.63;5061318;28;20024;-82
2022/06/10 04:53:59;;;;;;;5.95;2.83;;;;;;;12.64;84.34;101685.50;5061957;28;20229;-82
2022/06/10 04:56:25;;;;;;;8.07;3.47;;;;;;;12.70;84.04;101692.44;5078406;28;20161;-82
2022/06/10 04:58:50;;;;;;;4.53;3.05;;;;;;;12.74;83.69;101696.78;5062342;28;20027;-81
2022/06/10 05:01:16;;;;;;;3.80;3.40;;;;;;;12.77;83.45;101699.34;5061483;28;20038;-81
2022/06/10 05:03:42;;;;;;;3.15;2.85;;;;;;;12.79;83.65;101699.38;5061921;28;20042;-84
2022/06/10 05:06:07;;;;;;;3.35;3.05;;;;;;;12.85;83.66;101704.53;5062167;28;20028;-84
2022/06/10 05:08:33;;;;;;;5.00;3.03;;;;;;;12.91;83.04;101699.25;5077907;28;20091;-84
2022/06/10 05:10:58;;;;;;;3.47;3.00;;;;;;;12.95;82.76;101708.81;5061304;28;20118;-84
2022/06/10 05:13:24;;;;;;;4.93;2.83;;;;;;;12.98;82.65;101706.16;5061034;28;20024;-84
2022/06/10 05:15:49;;;;;;;6.47;3.00;;;;;;;12.99;82.49;101713.16;5060997;28;20024;-84
2022/06/10 05:18:18;;;;;;;5.65;2.80;;;;;;;13.04;82.27;101709.63;5060620;28;20069;-84
2022/06/10 05:20:44;;;;;;;2.78;2.47;;;;;;;13.06;82.74;101708.72;5060718;28;20370;-84
2022/06/10 05:23:12;;;;;;;3.85;2.58;;;;;;;13.09;82.10;101705.16;5060430;28;20369;-84
2022/06/10 05:25:38;;;;;;;5.65;2.65;;;;;;;13.15;80.85;101707.75;5060987;28;20054;-84
2022/06/10 05:28:05;;;;;;;3.53;2.22;;;;;;;13.21;81.00;101712.03;5060018;28;20047;-84
2022/06/10 05:30:32;;;;;;;7.53;2.40;;;;;;;13.26;80.87;101718.13;5060474;28;20096;-83
2022/06/10 05:32:59;;;;;;;4.43;2.38;;;;;;;13.29;80.76;101708.47;5060043;28;20041;-83
2022/06/10 05:35:24;;;;;;;3.60;2.00;;;;;;;13.33;81.14;101722.41;5058608;28;20020;-84
2022/06/10 05:37:51;;;;;;;8.77;2.85;;;;;;;13.37;79.85;101724.13;5060405;28;20031;-83
2022/06/10 05:40:17;;;;;;;4.93;2.20;;;;;;;13.43;79.67;101723.19;5060270;28;20027;-84
2022/06/10 05:42:43;;;;;;;2.85;1.92;;;;;;;13.49;79.30;101720.50;5059947;28;20481;-84
2022/06/10 05:45:11;;;;;;;6.03;1.80;;;;;;;13.52;78.71;101723.97;5060005;28;20020;-84
2022/06/10 05:47:37;;;;;;;6.60;2.08;;;;;;;13.58;77.18;101723.03;5059497;28;20497;-84
2022/06/10 05:50:07;;;;;;;4.65;2.10;;;;;;;13.62;77.21;101716.84;5059728;28;20023;-83
2022/06/10 05:52:32;;;;;;;7.03;1.85;;;;;;;13.64;77.11;101722.94;5059620;28;20027;-83
2022/06/10 05:55:01;;;;;;;3.28;1.70;;;;;;;13.70;77.16;101721.97;5059640;28;20086;-84
2022/06/10 05:57:27;;;;;;;2.67;1.52;;;;;;;13.75;76.18;101724.56;5059298;28;20039;-84
2022/06/10 05:59:52;;;;;;;6.18;1.65;;;;;;;13.79;75.98;101727.13;5059460;28;20031;-84
2022/06/10 06:02:19;;;;;;;9.93;1.80;;;;;;;13.87;75.49;101732.28;5059545;28;20027;-84
2022/06/10 06:04:45;;;;;;;5.70;1.58;;;;;;;13.91;74.66;101730.50;5059622;28;20093;-84
2022/06/10 06:07:17;;;;;;;5.00;1.50;;;;;;;13.93;75.96;101732.19;5059442;28;20032;-83
2022/06/10 06:09:43;;;;;;;7.00;1.85;;;;;;;13.93;75.30;101737.44;5075993;28;20096;-84
2022/06/10 06:12:09;;;;;;;5.85;2.05;;;;;;;13.95;75.29;101733.03;5059052;28;20020;-84
2022/06/10 06:14:34;;;;;;;4.63;1.60;;;;;;;13.99;75.23;101740.00;5058983;28;20020;-84
2022/06/10 06:17:01;;;;;;;7.38;2.05;;;;;;;14.01;74.86;101740.81;5059183;28;20028;-83
2022/06/10 06:19:28;;;;;;;3.70;1.65;;;;;;;14.05;74.67;101735.56;5058891;28;20370;-84
2022/06/10 06:21:54;;;;;;;3.95;1.50;;;;;;;14.07;74.95;101731.13;5075795;28;20055;-84
2022/06/10 06:24:20;;;;;;;6.72;1.70;;;;;;;14.14;74.12;101732.78;5058968;28;20456;-84
2022/06/10 06:26:45;;;;;;;4.15;1.70;;;;;;;14.13;74.19;101725.78;5059082;28;20409;-84
2022/06/10 06:29:11;;;;;;;6.97;1.77;;;;;;;14.17;73.64;101738.00;5059162;28;20028;-84
2022/06/10 06:31:37;;;;;;;4.70;1.63;;;;;;;14.19;73.91;101737.09;5058801;28;20020;-84
2022/06/10 06:34:02;;;;;;;3.92;1.65;;;;;;;14.23;73.50;101744.91;5058779;28;20020;-84
2022/06/10 06:36:29;;;;;;;4.93;1.60;;;;;;;14.29;71.96;101737.81;5058722;28;20446;-84
2022/06/10 06:38:54;;;;;;;7.05;1.70;;;;;;;14.35;72.00;101736.84;5058910;28;20032;-84
2022/06/10 06:41:21;;;;;;;4.80;1.23;;;;;;;14.34;71.76;101738.63;5075383;28;20384;-86
2022/06/10 06:43:47;;;;;;;3.55;1.35;;;;;;;14.39;71.58;101745.56;5058753;28;20023;-84
2022/06/10 06:46:15;;;;;;;4.68;1.33;;;;;;;14.42;71.57;101735.84;5058228;28;20024;-84
2022/06/10 06:48:41;;;;;;;6.78;2.00;;;;;;;14.44;71.91;101743.72;5058527;28;20020;-84
2022/06/10 06:51:07;;;;;;;2.45;1.60;;;;;;;14.45;71.95;101745.44;5058549;28;20026;-84
2022/06/10 06:53:33;;;;;;;6.03;1.77;;;;;;;14.51;72.14;101743.59;5058270;28;20392;-85
2022/06/10 06:56:00;;;;;;;7.40;1.45;;;;;;;14.54;71.53;101745.31;5058671;28;20435;-84
2022/06/10 06:58:25;;;;;;;5.68;1.33;;;;;;;14.58;71.36;101743.50;5058413;28;20027;-83
2022/06/10 07:00:51;;;;;;;4.15;1.25;;;;;;;14.61;71.22;101741.69;5058119;28;20032;-84
2022/06/10 07:03:16;;;;;;;7.20;1.50;;;;;;;14.66;71.30;101747.78;5057682;28;20176;-84
2022/06/10 07:05:42;;;;;;;3.03;1.13;;;;;;;14.73;70.40;101745.06;5058146;28;20118;-84
2022/06/10 07:08:08;;;;;;;4.68;1.48;;;;;;;14.77;69.82;101744.97;5058100;28;20024;-84
2022/06/10 07:10:34;;;;;;;2.58;1.30;;;;;;;14.82;69.74;101755.41;5057797;28;20452;-85
2022/06/10 07:12:59;;;;;;;4.57;1.38;;;;;;;14.86;69.57;101750.06;5057973;28;20114;-85
2022/06/10 07:15:25;;;;;;;4.45;1.25;;;;;;;14.99;67.52;101753.34;5057951;28;20103;-84
2022/06/10 07:17:50;;;;;;;1.58;0.98;;;;;;;15.03;69.20;101747.13;5057923;28;20028;-84
2022/06/10 07:20:24;;;;;;;3.90;1.30;;;;;;;15.07;69.84;101758.47;5057737;28;20111;-85
2022/06/10 07:22:50;;;;;;;3.70;1.20;;;;;;;15.10;69.13;101763.69;5057842;28;20024;-84
2022/06/10 07:25:16;;;;;;;4.47;1.13;;;;;;;15.13;68.63;101757.50;5058141;28;20027;-84
2022/06/10 07:27:43;;;;;;;4.05;1.23;;;;;;;15.16;67.61;101757.44;5057670;28;20051;-84
2022/06/10 07:30:09;;;;;;;4.13;1.40;;;;;;;15.21;66.77;101758.22;5057919;28;20063;-84
2022/06/10 07:32:35;;;;;;;2.03;0.98;;;;;;;15.26;65.66;101751.09;5074074;28;20028;-84
2022/06/10 07:35:00;;;;;;;3.38;1.20;;;;;;;15.30;65.77;101752.78;5057770;28;20115;-84
2022/06/10 07:37:26;;;;;;;2.83;1.42;;;;;;;15.36;66.01;101747.38;5074327;28;20115;-84
2022/06/10 07:39:51;;;;;;;6.47;1.42;;;;;;;15.38;65.92;101742.97;5072898;28;20469;-84
2022/06/10 07:42:17;;;;;;;5.63;1.25;;;;;;;15.44;66.06;101749.03;5057529;28;20024;-84
2022/06/10 07:44:43;;;;;;;4.90;1.10;;;;;;;15.48;66.53;101748.91;5057647;28;20473;-84
2022/06/10 07:47:12;;;;;;;4.57;1.20;;;;;;;15.59;65.60;101751.34;5055343;28;20036;-85
2022/06/10 07:49:37;;;;;;;5.85;1.30;;;;;;;15.66;65.14;101742.41;5037050;28;20115;-84
2022/06/10 07:52:04;;;;;;;4.78;1.40;;;;;;;15.74;66.16;101744.88;5037380;28;20431;-84
2022/06/10 07:54:31;;;;;;;3.17;1.40;;;;;;;15.80;66.35;101743.91;5037595;28;20051;-84
2022/06/10 07:57:00;;;;;;;3.72;1.60;;;;;;;15.82;65.25;101750.03;5037761;28;20497;-84
2022/06/10 07:59:26;;;;;;;3.47;1.08;;;;;;;15.84;63.43;101737.69;5040772;28;20136;-84
2022/06/10 08:01:51;;;;;;;2.50;0.85;;;;;;;15.86;64.76;101743.81;5041183;28;20592;-84
2022/06/10 08:04:17;;;;;;;6.47;0.90;;;;;;;15.89;63.39;101749.84;5041720;28;20608;-84
2022/06/10 08:06:46;;;;;;;2.00;1.00;;;;;;;15.90;64.06;101756.00;5041594;28;20024;-84
2022/06/10 08:09:11;;;;;;;3.15;1.08;;;;;;;16.00;60.98;101741.72;5041742;28;20024;-84
2022/06/10 08:11:38;;;;;;;2.10;1.25;;;;;;;16.00;61.54;101736.44;5041090;28;20082;-84
2022/06/10 08:14:07;;;;;;;3.10;1.13;;;;;;;16.05;61.92;101734.56;5041257;28;20557;-84
2022/06/10 08:16:34;;;;;;;5.03;1.10;;;;;;;16.10;62.38;101729.22;5041994;28;20031;-85
2022/06/10 08:19:00;;;;;;;1.60;1.05;;;;;;;16.17;60.56;101735.19;5041310;28;20032;-84
2022/06/10 08:24:10;;;;;;;2.45;1.25;;;;;;;16.28;61.05;101727.91;5060808;28;20058;-84
2022/06/10 08:26:36;;;;;;;3.67;1.30;;;;;;;16.30;60.67;101734.00;5041156;28;20064;-84
2022/06/10 08:29:03;;;;;;;4.85;1.30;;;;;;;16.32;62.37;101736.59;5041088;28;20046;-84
2022/06/10 08:31:29;;;;;;;3.40;1.08;;;;;;;16.33;60.80;101739.22;5041198;28;20027;-85
2022/06/10 08:33:54;;;;;;;3.38;1.10;;;;;;;16.34;61.05;101730.38;5057055;28;20028;-84
2022/06/10 08:36:20;;;;;;;3.47;1.65;;;;;;;16.38;60.01;101729.41;5040859;28;20024;-83
2022/06/10 08:38:45;;;;;;;3.28;1.83;;;;;;;16.46;61.75;101728.38;5040916;28;20016;-84
2022/06/10 08:41:32;;;;;;;5.93;1.80;;;;;;;16.52;59.41;101725.56;5057394;28;20023;-85
2022/06/10 08:44:05;;;;;;;2.17;0.98;;;;;;;16.61;60.14;101722.72;5057289;28;20103;-84
2022/06/10 08:46:42;;;;;;;4.55;2.08;;;;;;;16.66;59.55;101718.19;5057323;28;20393;-84
2022/06/10 08:49:17;;;;;;;2.35;1.70;;;;;;;16.75;60.64;101721.50;5057201;28;20035;-84
2022/06/10 08:52:17;;;;;;;2.20;1.15;;;;;;;16.80;60.36;101720.47;5057120;28;20494;-84
2022/06/10 08:54:59;;;;;;;2.97;1.40;;;;;;;16.85;61.49;101721.22;5048502;28;20509;-84
2022/06/10 08:57:40;;;;;;;4.78;1.80;;;;;;;16.88;60.85;101722.94;5057146;28;20114;-84
2022/06/10 09:00:25;;;;;;;5.78;1.70;;;;;;;16.91;61.05;101712.31;5040411;28;20024;-84
2022/06/10 09:03:18;;;;;;;3.63;1.75;;;;;;;16.97;60.95;101722.69;5052322;22;20041;-78
2022/06/10 09:05:51;;;;;;;3.30;1.80;;;;;;;17.08;59.36;101718.91;5038448;28;20056;-78
2022/06/10 09:08:24;;;;;;;3.25;1.65;;;;;;;17.16;59.05;101735.41;5022068;28;20025;-79
2022/06/10 09:10:50;;;;;;;6.13;1.95;;;;;;;17.25;57.75;101711.41;5038466;28;20480;-79
2022/06/10 09:13:50;;;;;;;3.30;1.50;;;;;;;17.31;58.37;101716.47;5038203;28;20024;-78
2022/06/10 09:16:47;;;;;;;3.20;1.77;;;;;;;17.38;57.65;101704.88;5016521;28;20406;-79
2022/06/10 09:19:19;;;;;;;4.50;1.40;;;;;;;17.49;58.05;101709.84;5038903;28;20108;-79
2022/06/10 09:21:59;;;;;;;6.55;1.88;;;;;;;17.64;57.21;101711.16;5038453;28;20021;-79
2022/06/10 09:24:28;;;;;;;7.15;2.20;;;;;;;17.76;56.36;101719.63;5038256;28;20142;-81
2022/06/10 09:27:04;;;;;;;5.85;1.70;;;;;;;17.81;55.96;101701.84;5038106;28;20287;-79
2022/06/10 09:29:30;;;;;;;7.60;2.20;;;;;;;17.87;55.48;101706.94;5038184;28;20029;-78
2022/06/10 09:32:18;;;;;;;4.65;2.60;;;;;;;17.90;55.26;101707.72;5021198;28;20056;-79
2022/06/10 09:35:05;;;;;;;3.72;1.92;;;;;;;17.94;56.92;101697.06;5021168;28;20024;-79
2022/06/10 09:37:40;;;;;;;4.50;1.92;;;;;;;17.97;55.42;101702.25;5021363;28;20585;-79
2022/06/10 09:40:37;;;;;;;3.00;1.70;;;;;;;18.07;54.17;101712.50;5037833;28;20509;-79
2022/06/10 09:43:07;;;;;;;7.93;2.15;;;;;;;18.15;55.18;101701.69;5037519;28;20020;-78
2022/06/10 09:45:32;;;;;;;4.30;1.98;;;;;;;18.30;54.57;101710.91;5037432;28;20100;-79
2022/06/10 09:48:26;;;;;;;3.80;1.90;;;;;;;18.45;54.82;101698.06;5037359;28;20063;-79
2022/06/10 09:51:16;;;;;;;5.10;2.17;;;;;;;18.53;55.29;101710.16;5037575;28;20025;-80
2022/06/10 09:54:03;;;;;;;4.82;2.10;;;;;;;18.59;54.87;101703.78;5037493;28;20029;-79
2022/06/10 09:56:34;;;;;;;4.47;2.00;;;;;;;18.61;53.29;101694.03;5055556;28;20100;-81
2022/06/10 09:59:09;;;;;;;5.28;1.70;;;;;;;18.63;55.19;101700.13;5057148;28;20194;-79
2022/06/10 10:01:53;;;;;;;;;;;;;;;18.68;55.03;101695.53;5022135;28;20051;-79
2022/06/10 10:04:47;;;;;;;3.78;1.88;;;;;;;18.81;54.90;101697.75;5056040;28;19919;-79
2022/06/10 10:07:37;;;;;;;3.53;2.00;;;;;;;18.89;53.52;101688.66;5038114;28;20029;-80
2022/06/10 10:10:05;;;;;;;6.60;2.22;;;;;;;18.94;53.57;101717.63;5042688;28;20021;-79
2022/06/10 10:13:09;;;;;;;3.67;2.20;;;;;;;18.92;52.28;101692.97;5060647;28;20419;-79
2022/06/10 10:15:55;;;;;;;3.78;1.60;;;;;;;18.89;52.53;101699.22;5042569;28;20104;-82
2022/06/10 10:18:26;;;;;;;5.30;1.60;;;;;;;18.81;52.51;101700.41;5042720;28;20029;-82
2022/06/10 10:21:23;;;;;;;5.32;1.98;;;;;;;18.86;54.19;101690.53;5058005;28;20057;-81
2022/06/10 10:23:54;;;;;;;4.20;1.83;;;;;;;18.95;54.55;101703.47;5033785;28;20035;-82
2022/06/10 10:26:42;;;;;;;6.57;1.58;;;;;;;19.00;52.05;101690.91;5023769;28;20035;-81
2022/06/10 10:29:17;;;;;;;3.55;1.38;;;;;;;19.06;50.84;101697.78;5037886;28;20029;-84
2022/06/10 10:31:57;;;;;;;3.22;1.30;;;;;;;19.00;50.06;101695.34;5022015;28;20039;-83
2022/06/10 10:34:26;;;;;;;2.53;1.30;;;;;;;18.97;49.10;101691.03;5021911;28;20021;-81
2022/06/10 10:36:57;;;;;;;3.22;1.48;;;;;;;18.95;50.57;101682.31;5021418;28;20017;-82
2022/06/10 10:39:33;;;;;;;3.50;1.35;;;;;;;19.12;49.29;101683.47;5021922;28;20029;-82
2022/06/10 10:42:02;;;;;;;1.65;1.50;;;;;;;19.19;51.30;101675.22;5021003;28;20083;-81
2022/06/10 10:44:29;;;;;;;4.35;1.20;;;;;;;19.22;51.29;101691.03;5021522;28;20021;-83
2022/06/10 10:47:00;;;;;;;3.30;1.40;;;;;;;19.25;51.81;101684.72;5020699;28;20029;-82
2022/06/10 10:49:31;;;;;;;3.03;1.30;;;;;;;19.27;51.11;101682.91;5037324;28;20032;-83
2022/06/10 10:51:57;;;;;;;3.92;1.40;;;;;;;19.32;51.38;101686.25;5020879;28;20028;-82
2022/06/10 10:54:33;;;;;;;5.82;1.60;;;;;;;19.32;51.07;101674.75;5020481;28;20021;-81
2022/06/10 10:56:59;;;;;;;3.53;1.35;;;;;;;19.36;51.95;101677.25;5020857;28;20393;-82
2022/06/10 10:59:34;;;;;;;3.88;1.50;;;;;;;19.43;52.55;101694.66;5020077;28;20025;-82
2022/06/10 11:02:02;;;;;;;2.65;1.63;;;;;;;19.57;49.28;101686.16;5020589;28;20102;-82
2022/06/10 11:04:36;;;;;;;1.83;1.27;;;;;;;19.68;48.55;101677.81;5020702;28;20496;-81
2022/06/10 11:07:14;;;;;;;2.95;1.10;;;;;;;19.86;48.32;101680.69;5020943;28;20079;-82
2022/06/10 11:09:46;;;;;;;3.55;1.35;;;;;;;20.04;49.30;101679.97;5020929;28;20039;-82
2022/06/10 11:12:15;;;;;;;3.13;1.50;;;;;;;20.10;48.29;101679.69;5036839;28;20032;-82
2022/06/10 11:14:41;;;;;;;2.60;1.58;;;;;;;20.20;47.82;101684.63;5020356;28;20078;-82
2022/06/10 11:17:13;;;;;;;2.45;1.50;;;;;;;20.18;47.76;101678.50;5020570;28;20058;-82
2022/06/10 11:19:58;;;;;;;2.88;1.65;;;;;;;20.07;49.29;101674.53;5037066;28;20025;-82
2022/06/10 11:22:39;;;;;;;1.92;1.70;;;;;;;20.05;51.03;101670.22;5018527;28;20032;-81
2022/06/10 11:25:14;;;;;;;3.33;1.63;;;;;;;20.04;50.40;101674.66;5019705;28;20021;-81
2022/06/10 11:27:49;;;;;;;9.32;2.30;;;;;;;20.06;48.90;101671.94;5035302;28;20052;-83
2022/06/10 11:30:15;;;;;;;5.53;2.22;;;;;;;20.00;49.99;101675.72;5052727;28;20082;-82
2022/06/10 11:32:42;;;;;;;3.05;1.80;;;;;;;20.03;50.37;101672.06;5034817;28;20036;-82
2022/06/10 11:35:26;;;;;;;5.13;2.10;;;;;;;20.10;50.81;101678.84;5035017;28;20017;-81
2022/06/10 11:37:58;;;;;;;3.80;2.20;;;;;;;20.25;50.64;101662.28;5034529;28;20487;-81
2022/06/10 11:40:46;;;;;;;3.38;1.90;;;;;;;20.43;50.01;101660.66;5019039;28;20029;-81
2022/06/10 11:43:35;;;;;;;6.15;1.98;;;;;;;20.52;50.48;101679.75;5035268;28;20025;-83
2022/06/10 11:46:18;;;;;;;4.40;2.10;;;;;;;20.57;49.96;101672.47;5020120;28;20047;-81
2022/06/10 11:49:14;;;;;;;3.88;1.92;;;;;;;20.63;50.66;101661.59;5018724;28;20025;-81
2022/06/10 11:52:01;;;;;;;2.40;1.67;;;;;;;20.73;48.37;101651.47;5018641;28;20025;-81
2022/06/10 11:54:38;;;;;;;1.77;1.65;;;;;;;20.76;48.97;101651.34;5019007;28;20025;-81